sensor_id;sensor_type;location;lat;lon;timestamp;P1;durP1;ratioP1;P2;durP2;ratioP2
13469;SDS011;6807;48.682;9.032;2023-08-31T00:01:00;2.58;;;2.38;;
13469;SDS011;6807;48.682;9.032;2023-08-31T00:03:28;3.65;;;2.92;;
13469;SDS011;6807;48.682;9.032;2023-08-31T00:05:56;3.85;;;2.80;;
13469;SDS011;6807;48.682;9.032;2023-08-31T00:08:24;3.90;;;2.60;;
13469;SDS011;6807;48.682;9.032;2023-08-31T00:10:55;3.20;;;2.90;;
13469;SDS011;6807;48.682;9.032;2023-08-31T00:13:23;4.82;;;2.50;;
13469;SDS011;6807;48.682;9.032;2023-08-31T00:15:53;6.00;;;2.85;;
13469;SDS011;6807;48.682;9.032;2023-08-31T00:18:20;5.25;;;2.60;;
13469;SDS011;6807;48.682;9.032;2023-08-31T00:20:47;3.80;;;2.70;;
13469;SDS011;6807;48.682;9.032;2023-08-31T00:23:14;3.20;;;2.05;;
13469;SDS011;6807;48.682;9.032;2023-08-31T00:25:42;5.03;;;2.70;;
13469;SDS011;6807;48.682;9.032;2023-08-31T00:28:09;2.65;;;2.45;;
13469;SDS011;6807;48.682;9.032;2023-08-31T00:30:37;4.00;;;2.72;;
13469;SDS011;6807;48.682;9.032;2023-08-31T00:33:04;4.85;;;3.00;;
13469;SDS011;6807;48.682;9.032;2023-08-31T00:35:32;5.03;;;2.55;;
13469;SDS011;6807;48.682;9.032;2023-08-31T00:38:00;3.78;;;2.78;;
13469;SDS011;6807;48.682;9.032;2023-08-31T00:40:29;2.83;;;2.33;;
13469;SDS011;6807;48.682;9.032;2023-08-31T00:42:59;5.82;;;2.58;;
13469;SDS011;6807;48.682;9.032;2023-08-31T00:45:26;4.68;;;2.75;;
13469;SDS011;6807;48.682;9.032;2023-08-31T00:47:54;4.93;;;2.83;;
13469;SDS011;6807;48.682;9.032;2023-08-31T00:50:22;4.07;;;2.53;;
13469;SDS011;6807;48.682;9.032;2023-08-31T00:52:49;5.75;;;3.10;;
13469;SDS011;6807;48.682;9.032;2023-08-31T00:55:17;4.65;;;2.65;;
13469;SDS011;6807;48.682;9.032;2023-08-31T00:57:44;7.30;;;2.75;;
13469;SDS011;6807;48.682;9.032;2023-08-31T01:00:13;4.03;;;2.88;;
13469;SDS011;6807;48.682;9.032;2023-08-31T01:02:43;4.53;;;3.72;;
13469;SDS011;6807;48.682;9.032;2023-08-31T01:05:23;2.97;;;2.58;;
13469;SDS011;6807;48.682;9.032;2023-08-31T01:07:57;4.07;;;3.05;;
13469;SDS011;6807;48.682;9.032;2023-08-31T01:10:29;2.83;;;2.63;;
13469;SDS011;6807;48.682;9.032;2023-08-31T01:13:05;6.80;;;2.90;;
13469;SDS011;6807;48.682;9.032;2023-08-31T01:15:41;3.70;;;2.75;;
13469;SDS011;6807;48.682;9.032;2023-08-31T01:18:13;4.60;;;3.00;;
13469;SDS011;6807;48.682;9.032;2023-08-31T01:20:44;4.97;;;3.03;;
13469;SDS011;6807;48.682;9.032;2023-08-31T01:23:18;4.65;;;2.90;;
13469;SDS011;6807;48.682;9.032;2023-08-31T01:25:47;3.95;;;2.80;;
13469;SDS011;6807;48.682;9.032;2023-08-31T01:28:15;3.20;;;2.90;;
13469;SDS011;6807;48.682;9.032;2023-08-31T01:30:42;4.65;;;3.35;;
13469;SDS011;6807;48.682;9.032;2023-08-31T01:33:09;3.42;;;3.10;;
13469;SDS011;6807;48.682;9.032;2023-08-31T01:35:38;7.10;;;3.28;;
13469;SDS011;6807;48.682;9.032;2023-08-31T01:38:09;4.00;;;2.70;;
13469;SDS011;6807;48.682;9.032;2023-08-31T01:40:38;4.82;;;3.38;;
13469;SDS011;6807;48.682;9.032;2023-08-31T01:43:12;3.50;;;3.20;;
13469;SDS011;6807;48.682;9.032;2023-08-31T01:45:40;2.78;;;2.58;;
13469;SDS011;6807;48.682;9.032;2023-08-31T01:48:07;5.03;;;3.45;;
13469;SDS011;6807;48.682;9.032;2023-08-31T01:50:35;3.72;;;3.03;;
13469;SDS011;6807;48.682;9.032;2023-08-31T01:53:02;4.78;;;3.20;;
13469;SDS011;6807;48.682;9.032;2023-08-31T01:55:29;6.30;;;2.88;;
13469;SDS011;6807;48.682;9.032;2023-08-31T01:57:56;4.68;;;3.08;;
13469;SDS011;6807;48.682;9.032;2023-08-31T02:00:25;3.63;;;3.10;;
13469;SDS011;6807;48.682;9.032;2023-08-31T02:02:53;5.45;;;2.80;;
13469;SDS011;6807;48.682;9.032;2023-08-31T02:05:20;5.25;;;2.90;;
13469;SDS011;6807;48.682;9.032;2023-08-31T02:07:47;4.38;;;3.38;;
13469;SDS011;6807;48.682;9.032;2023-08-31T02:10:14;3.42;;;2.90;;
13469;SDS011;6807;48.682;9.032;2023-08-31T02:12:41;4.93;;;3.08;;
13469;SDS011;6807;48.682;9.032;2023-08-31T02:15:08;6.18;;;3.65;;
13469;SDS011;6807;48.682;9.032;2023-08-31T02:17:37;3.80;;;3.40;;
13469;SDS011;6807;48.682;9.032;2023-08-31T02:20:05;6.95;;;3.45;;
13469;SDS011;6807;48.682;9.032;2023-08-31T02:22:33;4.65;;;3.63;;
13469;SDS011;6807;48.682;9.032;2023-08-31T02:25:01;5.85;;;3.50;;
13469;SDS011;6807;48.682;9.032;2023-08-31T02:27:29;7.60;;;4.28;;
13469;SDS011;6807;48.682;9.032;2023-08-31T02:29:56;6.40;;;3.72;;
13469;SDS011;6807;48.682;9.032;2023-08-31T02:32:23;4.35;;;3.88;;
13469;SDS011;6807;48.682;9.032;2023-08-31T02:34:52;4.30;;;3.70;;
13469;SDS011;6807;48.682;9.032;2023-08-31T02:37:19;5.65;;;4.60;;
13469;SDS011;6807;48.682;9.032;2023-08-31T02:39:46;7.07;;;4.32;;
13469;SDS011;6807;48.682;9.032;2023-08-31T02:42:13;6.28;;;4.65;;
13469;SDS011;6807;48.682;9.032;2023-08-31T02:44:40;5.00;;;4.13;;
13469;SDS011;6807;48.682;9.032;2023-08-31T02:47:06;4.65;;;3.70;;
13469;SDS011;6807;48.682;9.032;2023-08-31T02:49:33;5.45;;;4.20;;
13469;SDS011;6807;48.682;9.032;2023-08-31T02:52:02;5.72;;;4.10;;
13469;SDS011;6807;48.682;9.032;2023-08-31T02:54:29;6.03;;;4.32;;
13469;SDS011;6807;48.682;9.032;2023-08-31T02:56:56;5.47;;;4.25;;
13469;SDS011;6807;48.682;9.032;2023-08-31T02:59:23;8.85;;;4.50;;
13469;SDS011;6807;48.682;9.032;2023-08-31T03:01:50;4.45;;;3.60;;
13469;SDS011;6807;48.682;9.032;2023-08-31T03:04:17;6.32;;;4.55;;
13469;SDS011;6807;48.682;9.032;2023-08-31T03:06:44;9.52;;;4.40;;
13469;SDS011;6807;48.682;9.032;2023-08-31T03:09:13;5.45;;;4.10;;
13469;SDS011;6807;48.682;9.032;2023-08-31T03:11:40;5.63;;;4.18;;
13469;SDS011;6807;48.682;9.032;2023-08-31T03:14:06;6.88;;;3.70;;
13469;SDS011;6807;48.682;9.032;2023-08-31T03:16:34;5.72;;;4.03;;
13469;SDS011;6807;48.682;9.032;2023-08-31T03:19:01;7.60;;;4.50;;
13469;SDS011;6807;48.682;9.032;2023-08-31T03:21:28;4.80;;;3.75;;
13469;SDS011;6807;48.682;9.032;2023-08-31T03:23:55;8.00;;;4.20;;
13469;SDS011;6807;48.682;9.032;2023-08-31T03:26:23;5.63;;;3.78;;
13469;SDS011;6807;48.682;9.032;2023-08-31T03:28:50;5.43;;;4.13;;
13469;SDS011;6807;48.682;9.032;2023-08-31T03:31:17;9.07;;;4.35;;
13469;SDS011;6807;48.682;9.032;2023-08-31T03:33:45;5.82;;;4.30;;
13469;SDS011;6807;48.682;9.032;2023-08-31T03:36:12;8.88;;;4.80;;
13469;SDS011;6807;48.682;9.032;2023-08-31T03:38:39;11.38;;;5.10;;
13469;SDS011;6807;48.682;9.032;2023-08-31T03:41:07;7.05;;;4.68;;
13469;SDS011;6807;48.682;9.032;2023-08-31T03:43:35;7.00;;;4.30;;
13469;SDS011;6807;48.682;9.032;2023-08-31T03:46:02;5.38;;;4.88;;
13469;SDS011;6807;48.682;9.032;2023-08-31T03:48:29;8.73;;;4.40;;
13469;SDS011;6807;48.682;9.032;2023-08-31T03:50:56;5.07;;;4.28;;
13469;SDS011;6807;48.682;9.032;2023-08-31T03:53:23;7.88;;;4.55;;
13469;SDS011;6807;48.682;9.032;2023-08-31T03:55:50;5.78;;;4.28;;
13469;SDS011;6807;48.682;9.032;2023-08-31T03:58:16;6.03;;;4.35;;
13469;SDS011;6807;48.682;9.032;2023-08-31T04:00:48;10.40;;;4.60;;
13469;SDS011;6807;48.682;9.032;2023-08-31T04:03:15;6.88;;;4.03;;
13469;SDS011;6807;48.682;9.032;2023-08-31T04:05:42;4.82;;;4.07;;
13469;SDS011;6807;48.682;9.032;2023-08-31T04:08:09;6.75;;;4.50;;
13469;SDS011;6807;48.682;9.032;2023-08-31T04:10:36;7.25;;;4.30;;
13469;SDS011;6807;48.682;9.032;2023-08-31T04:13:03;6.10;;;4.38;;
13469;SDS011;6807;48.682;9.032;2023-08-31T04:15:31;5.88;;;4.40;;
13469;SDS011;6807;48.682;9.032;2023-08-31T04:18:00;5.40;;;4.22;;
13469;SDS011;6807;48.682;9.032;2023-08-31T04:20:27;5.30;;;4.57;;
13469;SDS011;6807;48.682;9.032;2023-08-31T04:22:54;5.53;;;4.05;;
13469;SDS011;6807;48.682;9.032;2023-08-31T04:25:21;6.03;;;4.43;;
13469;SDS011;6807;48.682;9.032;2023-08-31T04:27:48;7.78;;;4.47;;
13469;SDS011;6807;48.682;9.032;2023-08-31T04:30:15;5.18;;;4.53;;
13469;SDS011;6807;48.682;9.032;2023-08-31T04:32:42;6.35;;;4.63;;
13469;SDS011;6807;48.682;9.032;2023-08-31T04:35:13;6.60;;;4.30;;
13469;SDS011;6807;48.682;9.032;2023-08-31T04:37:43;7.38;;;4.85;;
13469;SDS011;6807;48.682;9.032;2023-08-31T04:40:12;7.00;;;4.60;;
13469;SDS011;6807;48.682;9.032;2023-08-31T04:42:39;6.13;;;4.82;;
13469;SDS011;6807;48.682;9.032;2023-08-31T04:45:06;6.28;;;4.78;;
13469;SDS011;6807;48.682;9.032;2023-08-31T04:47:37;7.57;;;4.63;;
13469;SDS011;6807;48.682;9.032;2023-08-31T04:50:05;8.25;;;5.40;;
13469;SDS011;6807;48.682;9.032;2023-08-31T04:52:34;14.30;;;6.10;;
13469;SDS011;6807;48.682;9.032;2023-08-31T04:55:01;7.65;;;4.80;;
13469;SDS011;6807;48.682;9.032;2023-08-31T04:57:29;7.30;;;5.13;;
13469;SDS011;6807;48.682;9.032;2023-08-31T04:59:56;7.50;;;5.07;;
13469;SDS011;6807;48.682;9.032;2023-08-31T05:02:24;7.00;;;4.63;;
13469;SDS011;6807;48.682;9.032;2023-08-31T05:04:50;8.25;;;4.75;;
13469;SDS011;6807;48.682;9.032;2023-08-31T05:07:17;7.68;;;4.93;;
13469;SDS011;6807;48.682;9.032;2023-08-31T05:09:46;8.10;;;5.10;;
13469;SDS011;6807;48.682;9.032;2023-08-31T05:12:13;6.10;;;4.75;;
13469;SDS011;6807;48.682;9.032;2023-08-31T05:14:40;8.75;;;5.28;;
13469;SDS011;6807;48.682;9.032;2023-08-31T05:17:07;6.90;;;5.32;;
13469;SDS011;6807;48.682;9.032;2023-08-31T05:19:34;9.57;;;6.65;;
13469;SDS011;6807;48.682;9.032;2023-08-31T05:22:01;5.63;;;4.93;;
13469;SDS011;6807;48.682;9.032;2023-08-31T05:24:28;5.70;;;5.10;;
13469;SDS011;6807;48.682;9.032;2023-08-31T05:26:56;6.70;;;5.45;;
13469;SDS011;6807;48.682;9.032;2023-08-31T05:29:23;8.55;;;4.97;;
13469;SDS011;6807;48.682;9.032;2023-08-31T05:31:51;5.97;;;5.25;;
13469;SDS011;6807;48.682;9.032;2023-08-31T05:34:20;7.65;;;5.50;;
13469;SDS011;6807;48.682;9.032;2023-08-31T05:36:48;9.55;;;5.70;;
13469;SDS011;6807;48.682;9.032;2023-08-31T05:39:15;10.25;;;5.53;;
13469;SDS011;6807;48.682;9.032;2023-08-31T05:41:42;8.98;;;5.15;;
13469;SDS011;6807;48.682;9.032;2023-08-31T05:44:10;6.50;;;4.88;;
13469;SDS011;6807;48.682;9.032;2023-08-31T05:46:37;6.40;;;4.80;;
13469;SDS011;6807;48.682;9.032;2023-08-31T05:49:05;6.75;;;4.75;;
13469;SDS011;6807;48.682;9.032;2023-08-31T05:51:33;7.18;;;4.22;;
13469;SDS011;6807;48.682;9.032;2023-08-31T05:54:00;7.25;;;5.00;;
13469;SDS011;6807;48.682;9.032;2023-08-31T05:56:28;8.35;;;4.88;;
13469;SDS011;6807;48.682;9.032;2023-08-31T05:58:55;7.72;;;4.85;;
13469;SDS011;6807;48.682;9.032;2023-08-31T06:01:23;7.32;;;4.50;;
13469;SDS011;6807;48.682;9.032;2023-08-31T06:03:50;5.25;;;4.00;;
13469;SDS011;6807;48.682;9.032;2023-08-31T06:06:17;6.00;;;4.68;;
13469;SDS011;6807;48.682;9.032;2023-08-31T06:08:45;6.90;;;4.00;;
13469;SDS011;6807;48.682;9.032;2023-08-31T06:11:13;4.60;;;4.20;;
13469;SDS011;6807;48.682;9.032;2023-08-31T06:13:40;6.53;;;3.70;;
13469;SDS011;6807;48.682;9.032;2023-08-31T06:16:07;5.95;;;3.90;;
13469;SDS011;6807;48.682;9.032;2023-08-31T06:18:35;8.20;;;3.90;;
13469;SDS011;6807;48.682;9.032;2023-08-31T06:21:02;13.52;;;4.22;;
13469;SDS011;6807;48.682;9.032;2023-08-31T06:23:38;4.97;;;2.78;;
13469;SDS011;6807;48.682;9.032;2023-08-31T06:26:05;5.68;;;3.42;;
13469;SDS011;6807;48.682;9.032;2023-08-31T06:28:32;5.43;;;3.45;;
13469;SDS011;6807;48.682;9.032;2023-08-31T06:30:59;4.10;;;2.75;;
13469;SDS011;6807;48.682;9.032;2023-08-31T06:33:26;4.63;;;3.05;;
13469;SDS011;6807;48.682;9.032;2023-08-31T06:35:54;5.22;;;2.70;;
13469;SDS011;6807;48.682;9.032;2023-08-31T06:38:22;5.07;;;2.55;;
13469;SDS011;6807;48.682;9.032;2023-08-31T06:40:49;5.03;;;3.08;;
13469;SDS011;6807;48.682;9.032;2023-08-31T06:43:16;4.82;;;2.78;;
13469;SDS011;6807;48.682;9.032;2023-08-31T06:45:43;2.53;;;2.30;;
13469;SDS011;6807;48.682;9.032;2023-08-31T06:48:10;5.63;;;2.72;;
13469;SDS011;6807;48.682;9.032;2023-08-31T06:50:37;2.67;;;2.20;;
13469;SDS011;6807;48.682;9.032;2023-08-31T06:53:06;3.85;;;2.78;;
13469;SDS011;6807;48.682;9.032;2023-08-31T06:55:33;5.43;;;2.67;;
13469;SDS011;6807;48.682;9.032;2023-08-31T06:58:00;4.32;;;2.33;;
13469;SDS011;6807;48.682;9.032;2023-08-31T07:00:29;5.05;;;2.53;;
13469;SDS011;6807;48.682;9.032;2023-08-31T07:02:57;4.22;;;2.30;;
13469;SDS011;6807;48.682;9.032;2023-08-31T07:05:25;4.22;;;2.20;;
13469;SDS011;6807;48.682;9.032;2023-08-31T07:07:54;6.68;;;2.20;;
13469;SDS011;6807;48.682;9.032;2023-08-31T07:10:23;6.30;;;2.20;;
13469;SDS011;6807;48.682;9.032;2023-08-31T07:12:50;5.22;;;2.45;;
13469;SDS011;6807;48.682;9.032;2023-08-31T07:15:17;3.78;;;1.98;;
13469;SDS011;6807;48.682;9.032;2023-08-31T07:17:44;4.53;;;2.25;;
13469;SDS011;6807;48.682;9.032;2023-08-31T07:20:11;6.10;;;2.20;;
13469;SDS011;6807;48.682;9.032;2023-08-31T07:22:40;3.25;;;1.98;;
13469;SDS011;6807;48.682;9.032;2023-08-31T07:25:08;2.42;;;2.13;;
13469;SDS011;6807;48.682;9.032;2023-08-31T07:27:36;3.35;;;1.77;;
13469;SDS011;6807;48.682;9.032;2023-08-31T07:30:04;3.38;;;2.03;;
13469;SDS011;6807;48.682;9.032;2023-08-31T07:32:32;2.72;;;2.20;;
13469;SDS011;6807;48.682;9.032;2023-08-31T07:34:59;6.63;;;2.03;;
13469;SDS011;6807;48.682;9.032;2023-08-31T07:37:26;4.25;;;2.40;;
13469;SDS011;6807;48.682;9.032;2023-08-31T07:39:53;3.08;;;2.20;;
13469;SDS011;6807;48.682;9.032;2023-08-31T07:42:20;2.95;;;1.90;;
13469;SDS011;6807;48.682;9.032;2023-08-31T07:44:48;2.50;;;2.25;;
13469;SDS011;6807;48.682;9.032;2023-08-31T07:47:15;2.83;;;2.17;;
13469;SDS011;6807;48.682;9.032;2023-08-31T07:49:42;2.75;;;1.95;;
13469;SDS011;6807;48.682;9.032;2023-08-31T07:52:09;3.95;;;2.10;;
13469;SDS011;6807;48.682;9.032;2023-08-31T07:54:37;4.90;;;2.47;;
13469;SDS011;6807;48.682;9.032;2023-08-31T07:57:04;2.88;;;2.17;;
13469;SDS011;6807;48.682;9.032;2023-08-31T07:59:31;4.43;;;2.22;;
13469;SDS011;6807;48.682;9.032;2023-08-31T08:01:59;2.78;;;2.05;;
13469;SDS011;6807;48.682;9.032;2023-08-31T08:04:26;3.67;;;2.13;;
13469;SDS011;6807;48.682;9.032;2023-08-31T08:06:54;3.35;;;2.00;;
13469;SDS011;6807;48.682;9.032;2023-08-31T08:09:21;3.80;;;1.90;;
13469;SDS011;6807;48.682;9.032;2023-08-31T08:11:49;3.50;;;2.10;;
13469;SDS011;6807;48.682;9.032;2023-08-31T08:14:16;2.80;;;2.05;;
13469;SDS011;6807;48.682;9.032;2023-08-31T08:16:43;5.13;;;2.50;;
13469;SDS011;6807;48.682;9.032;2023-08-31T08:19:11;2.83;;;1.90;;
13469;SDS011;6807;48.682;9.032;2023-08-31T08:21:38;3.38;;;1.88;;
13469;SDS011;6807;48.682;9.032;2023-08-31T08:24:05;2.30;;;2.03;;
13469;SDS011;6807;48.682;9.032;2023-08-31T08:26:32;2.55;;;1.85;;
13469;SDS011;6807;48.682;9.032;2023-08-31T08:28:59;2.63;;;2.10;;
13469;SDS011;6807;48.682;9.032;2023-08-31T08:31:26;2.20;;;1.70;;
13469;SDS011;6807;48.682;9.032;2023-08-31T08:33:53;3.88;;;1.90;;
13469;SDS011;6807;48.682;9.032;2023-08-31T08:36:21;3.78;;;1.95;;
13469;SDS011;6807;48.682;9.032;2023-08-31T08:38:48;4.05;;;1.85;;
13469;SDS011;6807;48.682;9.032;2023-08-31T08:41:14;3.78;;;2.10;;
13469;SDS011;6807;48.682;9.032;2023-08-31T08:43:44;4.95;;;2.25;;
13469;SDS011;6807;48.682;9.032;2023-08-31T08:46:17;2.58;;;1.88;;
13469;SDS011;6807;48.682;9.032;2023-08-31T08:48:44;3.95;;;2.05;;
13469;SDS011;6807;48.682;9.032;2023-08-31T08:51:14;5.13;;;2.22;;
13469;SDS011;6807;48.682;9.032;2023-08-31T08:53:43;3.10;;;2.00;;
13469;SDS011;6807;48.682;9.032;2023-08-31T08:56:10;5.22;;;2.33;;
13469;SDS011;6807;48.682;9.032;2023-08-31T08:58:37;4.85;;;2.33;;
13469;SDS011;6807;48.682;9.032;2023-08-31T09:01:04;4.50;;;2.67;;
13469;SDS011;6807;48.682;9.032;2023-08-31T09:03:34;3.38;;;2.00;;
13469;SDS011;6807;48.682;9.032;2023-08-31T09:06:01;3.53;;;1.92;;
13469;SDS011;6807;48.682;9.032;2023-08-31T09:08:28;3.95;;;2.08;;
13469;SDS011;6807;48.682;9.032;2023-08-31T09:10:57;3.25;;;2.00;;
13469;SDS011;6807;48.682;9.032;2023-08-31T09:13:26;4.10;;;2.30;;
13469;SDS011;6807;48.682;9.032;2023-08-31T09:15:54;4.72;;;2.50;;
13469;SDS011;6807;48.682;9.032;2023-08-31T09:18:22;3.35;;;1.98;;
13469;SDS011;6807;48.682;9.032;2023-08-31T09:20:51;2.95;;;2.00;;
13469;SDS011;6807;48.682;9.032;2023-08-31T09:23:19;4.30;;;1.98;;
13469;SDS011;6807;48.682;9.032;2023-08-31T09:25:47;3.53;;;2.10;;
13469;SDS011;6807;48.682;9.032;2023-08-31T09:28:20;6.50;;;2.33;;
13469;SDS011;6807;48.682;9.032;2023-08-31T09:30:48;4.68;;;2.50;;
13469;SDS011;6807;48.682;9.032;2023-08-31T09:33:17;4.07;;;2.72;;
13469;SDS011;6807;48.682;9.032;2023-08-31T09:35:47;4.53;;;2.15;;
13469;SDS011;6807;48.682;9.032;2023-08-31T09:38:17;2.92;;;1.95;;
13469;SDS011;6807;48.682;9.032;2023-08-31T09:40:45;3.47;;;2.22;;
13469;SDS011;6807;48.682;9.032;2023-08-31T09:43:12;6.68;;;2.38;;
13469;SDS011;6807;48.682;9.032;2023-08-31T09:45:46;3.45;;;2.17;;
13469;SDS011;6807;48.682;9.032;2023-08-31T09:48:14;3.05;;;2.13;;
13469;SDS011;6807;48.682;9.032;2023-08-31T09:50:42;3.92;;;2.38;;
13469;SDS011;6807;48.682;9.032;2023-08-31T09:53:11;4.30;;;1.80;;
13469;SDS011;6807;48.682;9.032;2023-08-31T09:55:38;2.55;;;1.90;;
13469;SDS011;6807;48.682;9.032;2023-08-31T09:58:07;4.78;;;1.98;;
13469;SDS011;6807;48.682;9.032;2023-08-31T10:00:36;4.63;;;2.03;;
13469;SDS011;6807;48.682;9.032;2023-08-31T10:03:05;2.70;;;2.03;;
13469;SDS011;6807;48.682;9.032;2023-08-31T10:05:32;4.78;;;2.33;;
13469;SDS011;6807;48.682;9.032;2023-08-31T10:07:59;5.63;;;1.90;;
13469;SDS011;6807;48.682;9.032;2023-08-31T10:10:27;4.93;;;2.75;;
13469;SDS011;6807;48.682;9.032;2023-08-31T10:12:55;3.60;;;2.30;;
13469;SDS011;6807;48.682;9.032;2023-08-31T10:15:23;3.40;;;2.30;;
13469;SDS011;6807;48.682;9.032;2023-08-31T10:17:57;5.57;;;2.65;;
13469;SDS011;6807;48.682;9.032;2023-08-31T10:20:27;4.40;;;2.47;;
13469;SDS011;6807;48.682;9.032;2023-08-31T10:22:56;3.72;;;2.22;;
13469;SDS011;6807;48.682;9.032;2023-08-31T10:25:23;4.45;;;2.58;;
13469;SDS011;6807;48.682;9.032;2023-08-31T10:27:51;4.95;;;2.58;;
13469;SDS011;6807;48.682;9.032;2023-08-31T10:30:25;4.53;;;2.85;;
13469;SDS011;6807;48.682;9.032;2023-08-31T10:35:51;3.33;;;2.15;;
13469;SDS011;6807;48.682;9.032;2023-08-31T10:38:26;4.00;;;2.45;;
13469;SDS011;6807;48.682;9.032;2023-08-31T10:41:02;4.32;;;2.00;;
13469;SDS011;6807;48.682;9.032;2023-08-31T10:43:45;7.03;;;2.55;;
13469;SDS011;6807;48.682;9.032;2023-08-31T10:46:17;3.92;;;2.30;;
13469;SDS011;6807;48.682;9.032;2023-08-31T10:48:50;5.25;;;2.60;;
13469;SDS011;6807;48.682;9.032;2023-08-31T10:51:19;4.13;;;2.17;;
13469;SDS011;6807;48.682;9.032;2023-08-31T10:53:48;3.45;;;2.20;;
13469;SDS011;6807;48.682;9.032;2023-08-31T10:56:16;8.18;;;2.33;;
13469;SDS011;6807;48.682;9.032;2023-08-31T10:58:43;3.10;;;2.17;;
13469;SDS011;6807;48.682;9.032;2023-08-31T11:04:20;4.55;;;2.10;;
13469;SDS011;6807;48.682;9.032;2023-08-31T11:06:49;6.55;;;2.15;;
13469;SDS011;6807;48.682;9.032;2023-08-31T11:09:19;4.40;;;2.28;;
13469;SDS011;6807;48.682;9.032;2023-08-31T11:11:47;4.90;;;2.33;;
13469;SDS011;6807;48.682;9.032;2023-08-31T11:14:14;4.38;;;2.38;;
13469;SDS011;6807;48.682;9.032;2023-08-31T11:16:42;5.10;;;2.47;;
13469;SDS011;6807;48.682;9.032;2023-08-31T11:19:10;3.40;;;1.92;;
13469;SDS011;6807;48.682;9.032;2023-08-31T11:21:37;6.90;;;2.35;;
13469;SDS011;6807;48.682;9.032;2023-08-31T11:24:06;2.53;;;1.90;;
13469;SDS011;6807;48.682;9.032;2023-08-31T11:26:34;4.70;;;2.42;;
13469;SDS011;6807;48.682;9.032;2023-08-31T11:29:05;3.75;;;2.47;;
13469;SDS011;6807;48.682;9.032;2023-08-31T11:31:32;3.30;;;2.10;;
13469;SDS011;6807;48.682;9.032;2023-08-31T11:34:04;2.50;;;1.80;;
13469;SDS011;6807;48.682;9.032;2023-08-31T11:36:31;4.90;;;2.08;;
13469;SDS011;6807;48.682;9.032;2023-08-31T11:38:58;3.85;;;2.15;;
13469;SDS011;6807;48.682;9.032;2023-08-31T11:41:31;4.10;;;2.28;;
13469;SDS011;6807;48.682;9.032;2023-08-31T11:44:01;5.03;;;2.13;;
13469;SDS011;6807;48.682;9.032;2023-08-31T11:46:30;3.63;;;2.30;;
13469;SDS011;6807;48.682;9.032;2023-08-31T11:48:58;4.35;;;2.10;;
13469;SDS011;6807;48.682;9.032;2023-08-31T11:51:26;4.28;;;2.10;;
13469;SDS011;6807;48.682;9.032;2023-08-31T11:53:54;4.60;;;2.35;;
13469;SDS011;6807;48.682;9.032;2023-08-31T11:56:23;3.78;;;2.05;;
13469;SDS011;6807;48.682;9.032;2023-08-31T11:58:52;4.97;;;2.20;;
13469;SDS011;6807;48.682;9.032;2023-08-31T12:01:20;4.57;;;2.20;;
13469;SDS011;6807;48.682;9.032;2023-08-31T12:03:47;3.08;;;2.03;;
13469;SDS011;6807;48.682;9.032;2023-08-31T12:06:15;3.80;;;2.47;;
13469;SDS011;6807;48.682;9.032;2023-08-31T12:08:42;6.18;;;2.30;;
13469;SDS011;6807;48.682;9.032;2023-08-31T12:11:09;4.40;;;2.00;;
13469;SDS011;6807;48.682;9.032;2023-08-31T12:13:37;7.03;;;2.22;;
13469;SDS011;6807;48.682;9.032;2023-08-31T12:16:07;4.53;;;1.88;;
13469;SDS011;6807;48.682;9.032;2023-08-31T12:18:38;4.38;;;2.00;;
13469;SDS011;6807;48.682;9.032;2023-08-31T12:21:05;3.25;;;2.00;;
13469;SDS011;6807;48.682;9.032;2023-08-31T12:23:33;3.63;;;2.17;;
13469;SDS011;6807;48.682;9.032;2023-08-31T12:25:59;4.15;;;2.13;;
13469;SDS011;6807;48.682;9.032;2023-08-31T12:28:27;5.13;;;2.13;;
13469;SDS011;6807;48.682;9.032;2023-08-31T12:30:54;2.85;;;1.77;;
13469;SDS011;6807;48.682;9.032;2023-08-31T12:33:24;4.03;;;2.20;;
13469;SDS011;6807;48.682;9.032;2023-08-31T12:35:51;2.60;;;1.95;;
13469;SDS011;6807;48.682;9.032;2023-08-31T12:38:18;5.03;;;2.10;;
13469;SDS011;6807;48.682;9.032;2023-08-31T12:40:45;5.15;;;2.30;;
13469;SDS011;6807;48.682;9.032;2023-08-31T12:43:12;5.30;;;2.60;;
13469;SDS011;6807;48.682;9.032;2023-08-31T12:45:39;3.45;;;1.95;;
13469;SDS011;6807;48.682;9.032;2023-08-31T12:48:06;3.67;;;2.00;;
13469;SDS011;6807;48.682;9.032;2023-08-31T12:50:35;3.72;;;1.92;;
13469;SDS011;6807;48.682;9.032;2023-08-31T12:53:02;4.55;;;2.22;;
13469;SDS011;6807;48.682;9.032;2023-08-31T12:55:29;3.15;;;1.80;;
13469;SDS011;6807;48.682;9.032;2023-08-31T12:57:56;2.63;;;2.10;;
13469;SDS011;6807;48.682;9.032;2023-08-31T13:00:23;4.78;;;2.22;;
13469;SDS011;6807;48.682;9.032;2023-08-31T13:02:51;2.22;;;1.98;;
13469;SDS011;6807;48.682;9.032;2023-08-31T13:05:18;2.90;;;2.15;;
13469;SDS011;6807;48.682;9.032;2023-08-31T13:07:47;3.83;;;2.00;;
13469;SDS011;6807;48.682;9.032;2023-08-31T13:10:14;3.60;;;2.13;;
13469;SDS011;6807;48.682;9.032;2023-08-31T13:12:41;4.78;;;2.35;;
13469;SDS011;6807;48.682;9.032;2023-08-31T13:15:09;3.05;;;1.80;;
13469;SDS011;6807;48.682;9.032;2023-08-31T13:17:36;4.10;;;2.10;;
13469;SDS011;6807;48.682;9.032;2023-08-31T13:20:03;4.22;;;2.10;;
13469;SDS011;6807;48.682;9.032;2023-08-31T13:22:31;4.38;;;2.28;;
13469;SDS011;6807;48.682;9.032;2023-08-31T13:24:59;2.92;;;2.20;;
13469;SDS011;6807;48.682;9.032;2023-08-31T13:27:26;4.18;;;2.22;;
13469;SDS011;6807;48.682;9.032;2023-08-31T13:29:54;2.97;;;2.03;;
13469;SDS011;6807;48.682;9.032;2023-08-31T13:32:21;2.97;;;1.92;;
13469;SDS011;6807;48.682;9.032;2023-08-31T13:34:48;3.60;;;2.20;;
13469;SDS011;6807;48.682;9.032;2023-08-31T13:37:15;5.82;;;2.50;;
13469;SDS011;6807;48.682;9.032;2023-08-31T13:39:42;4.30;;;2.25;;
13469;SDS011;6807;48.682;9.032;2023-08-31T13:42:10;5.80;;;3.10;;
13469;SDS011;6807;48.682;9.032;2023-08-31T13:44:37;3.95;;;2.47;;
13469;SDS011;6807;48.682;9.032;2023-08-31T13:47:04;5.53;;;2.10;;
13469;SDS011;6807;48.682;9.032;2023-08-31T13:49:50;3.30;;;2.25;;
13469;SDS011;6807;48.682;9.032;2023-08-31T13:52:17;4.25;;;2.08;;
13469;SDS011;6807;48.682;9.032;2023-08-31T13:54:46;3.92;;;2.25;;
13469;SDS011;6807;48.682;9.032;2023-08-31T13:57:15;5.03;;;2.28;;
13469;SDS011;6807;48.682;9.032;2023-08-31T13:59:42;5.32;;;2.47;;
13469;SDS011;6807;48.682;9.032;2023-08-31T14:02:09;3.30;;;2.20;;
13469;SDS011;6807;48.682;9.032;2023-08-31T14:04:36;4.70;;;2.20;;
13469;SDS011;6807;48.682;9.032;2023-08-31T14:07:04;4.80;;;2.30;;
13469;SDS011;6807;48.682;9.032;2023-08-31T14:09:33;4.00;;;2.38;;
13469;SDS011;6807;48.682;9.032;2023-08-31T14:12:00;3.65;;;2.10;;
13469;SDS011;6807;48.682;9.032;2023-08-31T14:14:28;2.33;;;2.00;;
13469;SDS011;6807;48.682;9.032;2023-08-31T14:16:55;2.33;;;2.03;;
13469;SDS011;6807;48.682;9.032;2023-08-31T14:19:22;4.82;;;2.42;;
13469;SDS011;6807;48.682;9.032;2023-08-31T14:21:49;4.25;;;2.17;;
13469;SDS011;6807;48.682;9.032;2023-08-31T14:24:18;4.75;;;2.40;;
13469;SDS011;6807;48.682;9.032;2023-08-31T14:26:45;4.90;;;2.17;;
13469;SDS011;6807;48.682;9.032;2023-08-31T14:29:17;6.53;;;2.40;;
13469;SDS011;6807;48.682;9.032;2023-08-31T14:31:46;3.45;;;2.47;;
13469;SDS011;6807;48.682;9.032;2023-08-31T14:34:13;4.65;;;1.90;;
13469;SDS011;6807;48.682;9.032;2023-08-31T14:36:43;4.03;;;2.08;;
13469;SDS011;6807;48.682;9.032;2023-08-31T14:39:10;5.97;;;2.22;;
13469;SDS011;6807;48.682;9.032;2023-08-31T14:41:37;2.42;;;1.73;;
13469;SDS011;6807;48.682;9.032;2023-08-31T14:44:05;4.88;;;2.15;;
13469;SDS011;6807;48.682;9.032;2023-08-31T14:46:35;3.42;;;2.45;;
13469;SDS011;6807;48.682;9.032;2023-08-31T14:49:04;3.72;;;2.20;;
13469;SDS011;6807;48.682;9.032;2023-08-31T14:51:31;3.25;;;1.95;;
13469;SDS011;6807;48.682;9.032;2023-08-31T14:53:58;4.32;;;2.25;;
13469;SDS011;6807;48.682;9.032;2023-08-31T14:56:25;3.88;;;2.33;;
13469;SDS011;6807;48.682;9.032;2023-08-31T14:58:52;5.05;;;2.47;;
13469;SDS011;6807;48.682;9.032;2023-08-31T15:01:19;4.32;;;2.40;;
13469;SDS011;6807;48.682;9.032;2023-08-31T15:03:48;2.95;;;1.80;;
13469;SDS011;6807;48.682;9.032;2023-08-31T15:06:16;3.28;;;2.03;;
13469;SDS011;6807;48.682;9.032;2023-08-31T15:08:46;2.67;;;1.98;;
13469;SDS011;6807;48.682;9.032;2023-08-31T15:18:01;5.10;;;2.65;;